createdAt,value
2017-10-13T00:00:42.946Z,11.70
2017-10-13T00:03:09.233Z,11.60
2017-10-13T00:05:35.462Z,11.60
2017-10-13T00:08:01.668Z,11.60
2017-10-13T00:10:27.922Z,11.50
2017-10-13T00:12:54.926Z,11.50
2017-10-13T00:15:21.147Z,11.50
2017-10-13T00:17:47.274Z,11.50
2017-10-13T00:20:13.469Z,11.50
2017-10-13T00:22:39.672Z,11.50
2017-10-13T00:25:05.890Z,11.50
2017-10-13T00:27:32.043Z,11.40
2017-10-13T00:29:58.972Z,11.40
2017-10-13T00:32:25.175Z,11.40
2017-10-13T00:34:51.410Z,11.40
2017-10-13T00:37:17.626Z,11.20
2017-10-13T00:39:43.802Z,11.30
2017-10-13T00:42:09.999Z,11.40
2017-10-13T00:44:36.146Z,11.40
2017-10-13T00:47:02.396Z,11.30
2017-10-13T00:49:28.566Z,11.40
2017-10-13T00:51:54.827Z,11.30
2017-10-13T00:54:21.031Z,11.20
2017-10-13T00:56:47.255Z,11.20
2017-10-13T00:59:13.418Z,11.20
2017-10-13T01:01:40.343Z,11.20
2017-10-13T01:04:07.319Z,11.30
2017-10-13T01:06:33.672Z,11.20
2017-10-13T01:08:59.984Z,11.20
2017-10-13T01:11:26.277Z,11.10
2017-10-13T01:13:52.479Z,11.10
2017-10-13T01:16:18.745Z,11.00
2017-10-13T01:18:45.035Z,11.10
2017-10-13T01:21:11.231Z,11.20
2017-10-13T01:23:37.506Z,11.20
2017-10-13T01:26:04.741Z,11.20
2017-10-13T01:28:31.714Z,11.20
2017-10-13T01:30:58.051Z,11.20
2017-10-13T01:33:24.372Z,11.30
2017-10-13T01:35:50.612Z,11.30
2017-10-13T01:38:17.613Z,11.30
2017-10-13T01:40:43.820Z,11.30
2017-10-13T01:43:10.039Z,11.20
2017-10-13T01:45:36.275Z,11.20
2017-10-13T01:48:03.305Z,11.20
2017-10-13T01:50:29.496Z,11.20
2017-10-13T01:52:55.691Z,11.20
2017-10-13T01:55:21.839Z,11.20
2017-10-13T01:57:47.982Z,11.20
2017-10-13T02:00:14.187Z,11.20
2017-10-13T02:02:40.552Z,11.20
2017-10-13T02:05:06.779Z,11.20
2017-10-13T02:07:33.024Z,11.30
2017-10-13T02:09:59.226Z,11.30
2017-10-13T02:12:26.128Z,11.40
2017-10-13T02:14:52.470Z,11.30
2017-10-13T02:17:19.467Z,11.30
2017-10-13T02:19:45.663Z,11.30
2017-10-13T02:22:11.911Z,11.30
2017-10-13T02:24:38.106Z,11.30
2017-10-13T02:27:04.346Z,11.20
2017-10-13T02:29:30.550Z,11.30
2017-10-13T02:31:56.749Z,11.20
2017-10-13T02:34:22.990Z,11.20
2017-10-13T02:36:49.972Z,11.20
2017-10-13T02:39:16.188Z,11.20
2017-10-13T02:41:43.170Z,11.10
2017-10-13T02:44:10.189Z,11.10
2017-10-13T02:46:36.386Z,11.10
2017-10-13T02:49:02.600Z,11.10
2017-10-13T02:51:28.845Z,11.10
2017-10-13T02:53:55.096Z,11.10
2017-10-13T02:56:21.293Z,11.10
2017-10-13T02:58:47.527Z,11.00
2017-10-13T03:01:14.557Z,11.00
2017-10-13T03:03:40.740Z,11.00
2017-10-13T03:06:06.937Z,11.00
2017-10-13T03:08:33.922Z,10.90
2017-10-13T03:11:00.119Z,10.90
2017-10-13T03:13:26.319Z,10.90
2017-10-13T03:15:52.551Z,10.80
2017-10-13T03:18:18.796Z,10.90
2017-10-13T03:20:45.030Z,10.90
2017-10-13T03:23:12.055Z,10.90
2017-10-13T03:25:38.244Z,10.80
2017-10-13T03:28:04.455Z,10.80
2017-10-13T03:30:30.656Z,10.80
2017-10-13T03:32:56.909Z,10.80
2017-10-13T03:35:23.087Z,10.80
2017-10-13T03:37:49.295Z,10.70
2017-10-13T03:40:15.560Z,10.70
2017-10-13T03:42:41.828Z,10.70
2017-10-13T03:45:08.084Z,10.70
2017-10-13T03:47:34.381Z,10.70
2017-10-13T03:50:00.636Z,10.70
2017-10-13T03:52:26.845Z,10.70
2017-10-13T03:54:53.109Z,10.60
2017-10-13T03:57:19.327Z,10.60
2017-10-13T03:59:45.589Z,10.50
2017-10-13T04:02:11.859Z,10.50
2017-10-13T04:04:38.192Z,10.60
2017-10-13T04:07:04.474Z,10.60
2017-10-13T04:09:30.657Z,10.50
2017-10-13T04:11:56.913Z,10.50
2017-10-13T04:14:23.104Z,10.50
2017-10-13T04:16:49.305Z,10.50
2017-10-13T04:19:15.586Z,10.40
2017-10-13T04:21:42.545Z,10.40
2017-10-13T04:24:08.753Z,10.40
2017-10-13T04:26:34.928Z,10.50
2017-10-13T04:29:01.128Z,10.40
2017-10-13T04:31:27.345Z,10.30
2017-10-13T04:33:53.568Z,10.30
2017-10-13T04:36:19.777Z,10.30
2017-10-13T04:38:45.941Z,10.30
2017-10-13T04:41:12.436Z,10.40
2017-10-13T04:43:39.377Z,10.30
2017-10-13T04:46:05.617Z,10.30
2017-10-13T04:48:31.770Z,10.30
2017-10-13T04:50:57.962Z,10.30
2017-10-13T04:53:24.115Z,10.30
2017-10-13T04:55:51.523Z,10.30
2017-10-13T04:58:18.509Z,10.30
2017-10-13T05:00:44.737Z,10.20
2017-10-13T05:03:10.945Z,10.30
2017-10-13T05:05:37.179Z,10.30
2017-10-13T05:08:03.359Z,10.30
2017-10-13T05:10:29.628Z,10.30
2017-10-13T05:12:55.844Z,10.30
2017-10-13T05:15:22.108Z,10.30
2017-10-13T05:17:48.441Z,10.30
2017-10-13T05:20:14.705Z,10.30
2017-10-13T05:22:40.919Z,10.30
2017-10-13T05:25:07.148Z,10.30
2017-10-13T05:27:33.521Z,10.30
2017-10-13T05:29:59.783Z,10.30
2017-10-13T05:32:26.038Z,10.30
2017-10-13T05:34:53.112Z,10.40
2017-10-13T05:37:19.368Z,10.40
2017-10-13T05:39:46.325Z,10.40
2017-10-13T05:42:12.754Z,10.40
2017-10-13T05:44:38.972Z,10.40
2017-10-13T05:47:05.278Z,10.40
2017-10-13T05:49:31.457Z,10.50
2017-10-13T05:51:57.807Z,10.50
2017-10-13T05:54:23.972Z,10.50
2017-10-13T05:56:51.166Z,10.50
2017-10-13T05:59:17.361Z,10.50
2017-10-13T06:01:44.516Z,10.60
2017-10-13T06:04:10.749Z,10.50
2017-10-13T06:06:36.975Z,10.60
2017-10-13T06:09:03.370Z,10.70
2017-10-13T06:11:30.148Z,10.70
2017-10-13T06:13:56.457Z,10.80
2017-10-13T06:16:22.748Z,10.80
2017-10-13T06:18:49.029Z,10.90
2017-10-13T06:21:15.271Z,11.00
2017-10-13T06:23:41.589Z,10.90
2017-10-13T06:26:07.813Z,11.00
2017-10-13T06:28:34.943Z,11.00
2017-10-13T06:31:01.919Z,11.10
2017-10-13T06:33:28.172Z,11.10
2017-10-13T06:35:54.398Z,11.00
2017-10-13T06:38:21.020Z,11.00
2017-10-13T06:40:47.987Z,11.10
2017-10-13T06:43:14.221Z,11.00
2017-10-13T06:45:40.469Z,11.10
2017-10-13T06:48:07.027Z,11.20
2017-10-13T06:50:33.248Z,11.30
2017-10-13T06:52:59.506Z,11.40
2017-10-13T06:55:25.732Z,11.40
2017-10-13T06:57:51.907Z,11.50
2017-10-13T07:00:18.151Z,11.60
2017-10-13T07:02:44.456Z,11.70
2017-10-13T07:05:10.686Z,11.80
2017-10-13T07:07:37.026Z,11.90
2017-10-13T07:10:03.222Z,11.90
2017-10-13T07:12:29.515Z,12.00
2017-10-13T07:14:55.806Z,12.10
2017-10-13T07:17:22.068Z,12.30
2017-10-13T07:19:49.048Z,12.40
2017-10-13T07:22:15.431Z,12.40
2017-10-13T07:24:41.679Z,12.50
2017-10-13T07:27:07.905Z,12.50
2017-10-13T07:29:34.162Z,12.60
2017-10-13T07:32:00.364Z,12.60
2017-10-13T07:34:26.603Z,12.70
2017-10-13T07:36:52.796Z,12.80
2017-10-13T07:39:19.000Z,12.90
2017-10-13T07:41:45.203Z,13.00
2017-10-13T07:44:11.528Z,13.00
2017-10-13T07:46:37.752Z,13.10
2017-10-13T07:49:04.017Z,13.10
2017-10-13T07:51:30.180Z,13.20
2017-10-13T07:53:56.431Z,13.30
2017-10-13T07:56:22.703Z,13.30
2017-10-13T07:58:48.922Z,13.40
2017-10-13T08:01:15.187Z,13.40
2017-10-13T08:03:41.513Z,13.50
2017-10-13T08:06:07.684Z,13.50
2017-10-13T08:08:34.660Z,13.70
2017-10-13T08:11:00.877Z,13.60
2017-10-13T08:13:27.102Z,13.70
2017-10-13T08:15:53.329Z,13.80
2017-10-13T08:18:19.557Z,13.90
2017-10-13T08:20:45.834Z,13.80
2017-10-13T08:23:12.163Z,13.90
2017-10-13T08:25:38.445Z,13.90
2017-10-13T08:28:04.733Z,13.90
2017-10-13T08:30:31.032Z,13.90
2017-10-13T08:32:57.555Z,14.00
2017-10-13T08:35:24.554Z,14.10
2017-10-13T08:37:50.986Z,14.10
2017-10-13T08:40:17.213Z,14.10
2017-10-13T08:42:43.508Z,14.20
2017-10-13T08:45:09.708Z,14.20
2017-10-13T08:47:35.934Z,14.20
2017-10-13T08:50:02.275Z,14.30
2017-10-13T08:52:29.251Z,14.40
2017-10-13T08:54:55.428Z,14.40
2017-10-13T08:57:21.687Z,14.40
2017-10-13T08:59:48.000Z,14.40
2017-10-13T09:02:14.223Z,14.40
2017-10-13T09:04:41.273Z,14.50
2017-10-13T09:07:07.539Z,14.50
2017-10-13T09:09:33.828Z,14.50
2017-10-13T09:12:00.157Z,14.60
2017-10-13T09:14:26.443Z,14.60
2017-10-13T09:16:52.621Z,14.60
2017-10-13T09:19:20.922Z,14.70
2017-10-13T09:21:52.030Z,14.70
2017-10-13T09:24:18.263Z,14.80
2017-10-13T09:26:44.471Z,14.80
2017-10-13T09:29:10.670Z,14.90
2017-10-13T09:31:36.927Z,15.00
2017-10-13T09:34:03.932Z,14.90
2017-10-13T09:36:30.250Z,15.00
2017-10-13T09:38:56.466Z,15.00
2017-10-13T09:41:22.718Z,15.10
2017-10-13T09:43:48.892Z,15.20
2017-10-13T09:46:15.135Z,15.20
2017-10-13T09:48:42.136Z,15.30
2017-10-13T09:51:08.389Z,15.30
2017-10-13T09:53:35.376Z,15.40
2017-10-13T09:56:01.577Z,15.40
2017-10-13T09:58:27.800Z,15.50
2017-10-13T10:00:54.020Z,15.50
2017-10-13T10:03:20.286Z,15.60
2017-10-13T10:05:46.505Z,15.60
2017-10-13T10:08:13.319Z,15.60
2017-10-13T10:10:39.594Z,15.80
2017-10-13T10:13:05.763Z,15.80
2017-10-13T10:15:31.985Z,15.80
2017-10-13T10:17:58.192Z,15.90
2017-10-13T10:20:24.406Z,15.90
2017-10-13T10:22:50.744Z,16.00
2017-10-13T10:25:17.527Z,16.00
2017-10-13T10:27:44.618Z,16.30
2017-10-13T10:30:10.819Z,16.30
2017-10-13T10:32:37.047Z,16.40
2017-10-13T10:35:05.643Z,16.60
2017-10-13T10:37:31.900Z,16.70
2017-10-13T10:39:58.274Z,16.70
2017-10-13T10:42:24.513Z,16.80
2017-10-13T10:44:50.712Z,16.80
2017-10-13T10:47:17.691Z,17.00
2017-10-13T10:49:43.922Z,17.00
2017-10-13T10:52:10.430Z,17.00
2017-10-13T10:54:36.650Z,17.00
2017-10-13T10:57:03.262Z,17.00
2017-10-13T10:59:29.496Z,17.00
2017-10-13T11:01:55.681Z,17.10
2017-10-13T11:04:21.892Z,17.10
2017-10-13T11:06:48.129Z,17.30
2017-10-13T11:09:14.387Z,17.40
2017-10-13T11:11:40.624Z,17.40
2017-10-13T11:14:06.862Z,17.40
2017-10-13T11:16:33.009Z,17.40
2017-10-13T11:19:00.199Z,17.50
2017-10-13T11:21:26.408Z,17.50
2017-10-13T11:23:52.696Z,17.50
2017-10-13T11:26:19.185Z,17.60
2017-10-13T11:36:18.875Z,17.70
2017-10-13T11:38:45.105Z,17.70
2017-10-13T11:41:12.082Z,17.70
2017-10-13T11:43:38.336Z,17.80
2017-10-13T11:46:04.578Z,17.80
2017-10-13T11:48:30.848Z,17.90
2017-10-13T11:50:57.098Z,17.90
2017-10-13T11:53:24.075Z,17.90
2017-10-13T11:55:50.550Z,17.90
2017-10-13T11:58:16.805Z,17.90
2017-10-13T12:00:43.043Z,18.00
2017-10-13T12:03:09.300Z,18.00
2017-10-13T12:05:35.515Z,18.00
2017-10-13T12:08:01.864Z,18.00
2017-10-13T12:10:28.083Z,18.00
2017-10-13T12:12:54.309Z,18.10
2017-10-13T12:15:20.535Z,18.30
2017-10-13T12:17:46.745Z,18.40
2017-10-13T12:20:13.160Z,18.30
2017-10-13T12:22:39.377Z,18.40
2017-10-13T12:25:05.639Z,18.40
2017-10-13T12:27:31.875Z,18.40
2017-10-13T12:29:58.077Z,18.60
2017-10-13T12:32:24.263Z,18.70
2017-10-13T12:34:51.231Z,18.70
2017-10-13T12:37:17.537Z,18.70
2017-10-13T12:39:43.761Z,18.80
2017-10-13T12:42:09.934Z,18.80
2017-10-13T12:44:36.128Z,18.90
2017-10-13T12:47:03.220Z,19.00
2017-10-13T12:52:00.395Z,18.90
2017-10-13T12:54:26.709Z,18.80
2017-10-13T12:56:52.900Z,18.80
2017-10-13T12:59:19.230Z,18.80
2017-10-13T13:01:45.420Z,18.70
2017-10-13T13:04:11.668Z,18.70
2017-10-13T13:06:37.994Z,18.80
2017-10-13T13:09:04.922Z,18.70
2017-10-13T13:11:31.898Z,18.60
2017-10-13T13:13:58.112Z,18.60
2017-10-13T13:16:24.295Z,18.60
2017-10-13T13:18:50.557Z,18.60
2017-10-13T13:21:16.727Z,18.60
2017-10-13T13:23:42.921Z,18.70
2017-10-13T13:26:09.872Z,18.70
2017-10-13T13:28:36.039Z,18.70
2017-10-13T13:31:02.337Z,18.70
2017-10-13T13:33:28.589Z,18.70
2017-10-13T13:35:54.796Z,18.70
2017-10-13T13:38:20.977Z,18.70
2017-10-13T13:40:47.231Z,18.70
2017-10-13T13:43:13.588Z,18.80
2017-10-13T13:45:49.155Z,18.80
2017-10-13T13:48:15.400Z,18.70
2017-10-13T13:50:41.663Z,18.70
2017-10-13T13:53:08.019Z,18.70
2017-10-13T13:55:34.339Z,18.60
2017-10-13T13:58:01.444Z,18.60
2017-10-13T14:00:27.691Z,18.60
2017-10-13T14:02:54.675Z,18.60
2017-10-13T14:05:20.893Z,18.60
2017-10-13T14:07:47.107Z,18.60
2017-10-13T14:10:13.322Z,18.60
2017-10-13T14:12:39.628Z,18.50
2017-10-13T14:15:05.860Z,18.50
2017-10-13T14:17:32.094Z,18.50
2017-10-13T14:19:58.402Z,18.40
2017-10-13T14:24:56.343Z,18.50
2017-10-13T14:27:22.704Z,18.50
2017-10-13T14:29:48.978Z,18.40
2017-10-13T14:32:15.161Z,18.40
2017-10-13T14:34:41.389Z,18.40
2017-10-13T14:37:07.627Z,18.40
2017-10-13T14:39:33.889Z,18.40
2017-10-13T14:42:00.127Z,18.40
2017-10-13T14:44:26.674Z,18.40
2017-10-13T14:46:52.938Z,18.40
2017-10-13T14:49:19.186Z,18.40
2017-10-13T14:51:45.387Z,18.40
2017-10-13T14:54:11.572Z,18.40
2017-10-13T14:56:37.859Z,18.40
2017-10-13T14:59:04.811Z,18.40
2017-10-13T15:01:31.086Z,18.40
2017-10-13T15:03:57.343Z,18.40
2017-10-13T15:06:23.591Z,18.40
2017-10-13T15:08:49.818Z,18.30
2017-10-13T15:11:16.027Z,18.30
2017-10-13T15:13:42.274Z,18.30
2017-10-13T15:16:09.254Z,18.30
2017-10-13T15:18:35.473Z,18.30
2017-10-13T15:21:01.689Z,18.30
2017-10-13T15:23:27.940Z,18.30
2017-10-13T15:25:54.896Z,18.30
2017-10-13T15:28:27.085Z,18.30
2017-10-13T15:31:11.868Z,18.30
2017-10-13T15:33:44.229Z,18.30
2017-10-13T15:36:17.447Z,18.20
2017-10-13T15:38:49.730Z,18.20
2017-10-13T15:41:22.260Z,18.30
2017-10-13T15:43:54.480Z,18.20
2017-10-13T15:49:40.643Z,18.10
2017-10-13T15:52:12.926Z,18.10
2017-10-13T15:54:39.099Z,18.10
2017-10-13T15:57:05.286Z,18.00
2017-10-13T15:59:31.464Z,18.00
2017-10-13T16:01:58.418Z,18.00
2017-10-13T16:04:24.613Z,18.00
2017-10-13T16:06:50.823Z,17.90
2017-10-13T16:09:17.096Z,18.00
2017-10-13T16:11:43.323Z,17.90
2017-10-13T16:14:09.514Z,17.90
2017-10-13T16:16:35.688Z,17.90
2017-10-13T16:19:01.902Z,17.90
2017-10-13T16:21:28.050Z,17.90
2017-10-13T16:23:54.209Z,17.90
2017-10-13T16:26:20.399Z,17.90
2017-10-13T16:28:47.416Z,17.70
2017-10-13T16:31:13.661Z,17.70
2017-10-13T16:33:40.045Z,17.70
2017-10-13T16:36:06.260Z,17.70
2017-10-13T16:38:32.525Z,17.70
2017-10-13T16:40:58.834Z,17.70
2017-10-13T16:43:25.074Z,17.70
2017-10-13T16:45:51.334Z,17.70
2017-10-13T16:48:17.671Z,17.60
2017-10-13T16:50:43.945Z,17.60
2017-10-13T16:53:10.138Z,17.60
2017-10-13T16:55:36.410Z,17.60
2017-10-13T16:58:02.687Z,17.60
2017-10-13T17:00:28.937Z,17.60
2017-10-13T17:02:55.915Z,17.60
2017-10-13T17:05:22.124Z,17.50
2017-10-13T17:07:48.299Z,17.50
2017-10-13T17:10:14.545Z,17.50
2017-10-13T17:12:40.807Z,17.50
2017-10-13T17:15:07.776Z,17.50
2017-10-13T17:17:34.036Z,17.40
2017-10-13T17:20:00.996Z,17.30
2017-10-13T17:22:27.160Z,17.30
2017-10-13T17:24:53.409Z,17.40
2017-10-13T17:27:20.386Z,17.30
2017-10-13T17:29:46.577Z,17.30
2017-10-13T17:32:12.790Z,17.30
2017-10-13T17:34:39.107Z,17.30
2017-10-13T17:37:05.354Z,17.30
2017-10-13T17:39:31.590Z,17.30
2017-10-13T17:41:58.730Z,17.20
2017-10-13T17:44:24.939Z,17.20
2017-10-13T17:46:51.191Z,17.10
2017-10-13T17:49:17.389Z,17.10
2017-10-13T17:51:43.610Z,17.00
2017-10-13T17:54:09.783Z,17.00
2017-10-13T17:56:35.994Z,17.00
2017-10-13T17:59:02.224Z,17.00
2017-10-13T18:01:28.442Z,17.10
2017-10-13T18:03:54.589Z,17.10
2017-10-13T18:06:21.526Z,17.00
2017-10-13T18:08:48.411Z,17.00
2017-10-13T18:11:14.576Z,17.00
2017-10-13T18:13:40.758Z,16.90
2017-10-13T18:16:07.112Z,16.90
2017-10-13T18:18:33.341Z,16.90
2017-10-13T18:20:59.524Z,16.90
2017-10-13T18:23:27.110Z,16.80
2017-10-13T18:25:54.052Z,16.80
2017-10-13T18:28:20.288Z,16.80
2017-10-13T18:30:46.508Z,16.70
2017-10-13T18:33:13.512Z,16.70
2017-10-13T18:35:39.795Z,16.70
2017-10-13T18:38:06.032Z,16.80
2017-10-13T18:40:32.291Z,16.70
2017-10-13T18:42:59.197Z,16.70
2017-10-13T18:45:25.386Z,16.70
2017-10-13T18:47:51.573Z,16.70
2017-10-13T18:50:17.903Z,16.70
2017-10-13T18:52:44.167Z,16.70
2017-10-13T18:55:14.709Z,16.70
2017-10-13T18:57:41.239Z,16.70
2017-10-13T19:00:07.505Z,16.70
2017-10-13T19:02:33.791Z,16.60
2017-10-13T19:05:00.057Z,16.70
2017-10-13T19:07:26.981Z,16.60
2017-10-13T19:09:54.087Z,16.60
2017-10-13T19:12:20.306Z,16.60
2017-10-13T19:14:46.502Z,16.60
2017-10-13T19:17:13.025Z,16.50
2017-10-13T19:19:39.236Z,16.50
2017-10-13T19:22:05.448Z,16.40
2017-10-13T19:24:31.638Z,16.40
2017-10-13T19:26:58.233Z,16.40
2017-10-13T19:29:24.475Z,16.30
2017-10-13T19:31:50.677Z,16.30
2017-10-13T19:34:16.889Z,16.30
2017-10-13T19:36:43.063Z,16.30
2017-10-13T19:39:10.371Z,16.30
2017-10-13T19:41:36.759Z,16.30
2017-10-13T19:44:02.922Z,16.30
2017-10-13T19:46:29.113Z,16.20
2017-10-13T19:48:55.596Z,16.20
2017-10-13T19:51:22.039Z,16.20
2017-10-13T19:53:48.336Z,16.20
2017-10-13T19:56:14.624Z,16.20
2017-10-13T19:58:40.828Z,16.20
2017-10-13T20:01:08.752Z,16.20
2017-10-13T20:03:35.177Z,16.20
2017-10-13T20:06:02.307Z,16.20
2017-10-13T20:08:29.545Z,16.20
2017-10-13T20:10:55.897Z,16.20
2017-10-13T20:13:22.144Z,16.20
2017-10-13T20:15:49.048Z,16.20
2017-10-13T20:18:15.264Z,16.20
2017-10-13T20:20:41.597Z,16.20
2017-10-13T20:23:07.760Z,16.20
2017-10-13T20:25:33.946Z,16.20
2017-10-13T20:28:01.374Z,16.20
2017-10-13T20:30:27.640Z,16.10
2017-10-13T20:32:54.339Z,16.10
2017-10-13T20:35:22.047Z,16.10
2017-10-13T20:37:48.327Z,16.10
2017-10-13T20:40:14.775Z,16.10
2017-10-13T20:42:41.259Z,16.00
2017-10-13T20:45:07.535Z,15.90
2017-10-13T20:47:33.898Z,15.90
2017-10-13T20:50:00.110Z,15.80
2017-10-13T20:52:27.315Z,15.70
2017-10-13T20:54:54.540Z,15.70
2017-10-13T20:57:20.763Z,15.70
2017-10-13T20:59:46.907Z,15.60
2017-10-13T21:02:13.429Z,15.60
2017-10-13T21:04:39.745Z,15.50
2017-10-13T21:07:06.676Z,15.50
2017-10-13T21:09:32.879Z,15.50
2017-10-13T21:11:59.128Z,15.50
2017-10-13T21:14:25.308Z,15.50
2017-10-13T21:16:51.518Z,15.40
2017-10-13T21:19:17.684Z,15.30
2017-10-13T21:21:43.952Z,15.30
2017-10-13T21:24:10.119Z,15.30
2017-10-13T21:26:36.287Z,15.30
2017-10-13T21:29:02.515Z,15.20
2017-10-13T21:31:28.770Z,15.20
2017-10-13T21:33:54.930Z,15.20
2017-10-13T21:36:21.199Z,15.20
2017-10-13T21:38:47.425Z,15.10
2017-10-13T21:41:13.699Z,15.10
2017-10-13T21:43:40.552Z,15.10
2017-10-13T21:46:20.278Z,15.00
2017-10-13T21:48:46.725Z,15.00
2017-10-13T21:51:13.262Z,14.90
2017-10-13T21:53:39.760Z,14.80
2017-10-13T21:56:06.179Z,14.80
2017-10-13T21:58:35.061Z,14.80
2017-10-13T22:01:01.546Z,14.80
2017-10-13T22:03:27.850Z,14.70
2017-10-13T22:05:54.942Z,14.70
2017-10-13T22:08:21.352Z,14.70
2017-10-13T22:10:48.419Z,14.70
2017-10-13T22:13:14.963Z,14.60
2017-10-13T22:15:41.349Z,14.60
2017-10-13T22:18:07.717Z,14.60
2017-10-13T22:20:34.102Z,14.60
2017-10-13T22:23:00.512Z,14.60
2017-10-13T22:25:26.878Z,14.60
2017-10-13T22:27:53.340Z,14.60
2017-10-13T22:30:19.840Z,14.60
2017-10-13T22:32:46.172Z,14.60
2017-10-13T22:35:12.498Z,14.60
2017-10-13T22:37:38.795Z,14.60
2017-10-13T22:40:05.157Z,14.60
2017-10-13T22:42:32.509Z,14.60
2017-10-13T22:44:58.942Z,14.60
2017-10-13T22:47:25.500Z,14.60
2017-10-13T22:49:52.818Z,14.70
2017-10-13T22:52:19.175Z,14.70
2017-10-13T22:54:45.548Z,14.70
2017-10-13T22:57:12.646Z,14.70
2017-10-13T22:59:39.076Z,14.70
2017-10-13T23:02:06.190Z,14.70
2017-10-13T23:04:32.536Z,14.70
2017-10-13T23:06:59.810Z,14.70
2017-10-13T23:09:26.347Z,14.70
2017-10-13T23:11:52.788Z,14.80
2017-10-13T23:14:19.148Z,14.70
2017-10-13T23:16:46.278Z,14.80
2017-10-13T23:19:12.679Z,14.70
2017-10-13T23:21:39.782Z,14.80
2017-10-13T23:24:06.166Z,14.80
2017-10-13T23:26:32.508Z,14.80
2017-10-13T23:28:58.988Z,14.80
2017-10-13T23:31:25.463Z,14.80
2017-10-13T23:33:51.786Z,14.80
2017-10-13T23:36:18.171Z,14.80
2017-10-13T23:38:44.697Z,14.80
2017-10-13T23:41:11.073Z,14.80
2017-10-13T23:43:37.504Z,14.80
2017-10-13T23:46:03.939Z,14.80
2017-10-13T23:48:30.777Z,14.80
2017-10-13T23:50:57.115Z,14.80
2017-10-13T23:53:23.452Z,14.80
2017-10-13T23:55:49.918Z,14.80
2017-10-13T23:58:16.367Z,14.80
